sensor_id;sensor_type;location;lat;lon;timestamp;P1;durP1;ratioP1;P2;durP2;ratioP2
75261;SDS011;63859;51.064;4.580;2024-01-10T00:01:34;13.40;;;5.50;;
75261;SDS011;63859;51.064;4.580;2024-01-10T00:04:00;12.00;;;5.67;;
75261;SDS011;63859;51.064;4.580;2024-01-10T00:06:26;9.57;;;5.53;;
75261;SDS011;63859;51.064;4.580;2024-01-10T00:08:51;11.53;;;6.13;;
75261;SDS011;63859;51.064;4.580;2024-01-10T00:11:17;10.97;;;5.70;;
75261;SDS011;63859;51.064;4.580;2024-01-10T00:13:43;11.27;;;5.90;;
75261;SDS011;63859;51.064;4.580;2024-01-10T00:16:11;12.97;;;6.10;;
75261;SDS011;63859;51.064;4.580;2024-01-10T00:18:38;12.53;;;5.93;;
75261;SDS011;63859;51.064;4.580;2024-01-10T00:21:05;10.33;;;5.70;;
75261;SDS011;63859;51.064;4.580;2024-01-10T00:23:35;14.13;;;6.37;;
75261;SDS011;63859;51.064;4.580;2024-01-10T00:26:00;14.57;;;6.47;;
75261;SDS011;63859;51.064;4.580;2024-01-10T00:28:27;9.73;;;5.97;;
75261;SDS011;63859;51.064;4.580;2024-01-10T00:30:52;14.87;;;6.23;;
75261;SDS011;63859;51.064;4.580;2024-01-10T00:33:18;10.17;;;5.90;;
75261;SDS011;63859;51.064;4.580;2024-01-10T00:35:44;16.30;;;6.37;;
75261;SDS011;63859;51.064;4.580;2024-01-10T00:38:10;10.40;;;5.97;;
75261;SDS011;63859;51.064;4.580;2024-01-10T00:40:35;11.57;;;5.13;;
75261;SDS011;63859;51.064;4.580;2024-01-10T00:43:01;12.20;;;6.23;;
75261;SDS011;63859;51.064;4.580;2024-01-10T00:45:27;11.13;;;5.83;;
75261;SDS011;63859;51.064;4.580;2024-01-10T00:47:53;15.77;;;6.47;;
75261;SDS011;63859;51.064;4.580;2024-01-10T00:50:19;9.77;;;6.07;;
75261;SDS011;63859;51.064;4.580;2024-01-10T00:52:44;16.27;;;6.10;;
75261;SDS011;63859;51.064;4.580;2024-01-10T00:55:11;14.30;;;6.53;;
75261;SDS011;63859;51.064;4.580;2024-01-10T00:57:37;9.97;;;5.50;;
75261;SDS011;63859;51.064;4.580;2024-01-10T01:00:04;11.67;;;5.97;;
75261;SDS011;63859;51.064;4.580;2024-01-10T01:02:34;10.30;;;5.83;;
75261;SDS011;63859;51.064;4.580;2024-01-10T01:05:00;13.40;;;5.67;;
75261;SDS011;63859;51.064;4.580;2024-01-10T01:07:27;11.93;;;5.90;;
75261;SDS011;63859;51.064;4.580;2024-01-10T01:09:52;11.03;;;5.77;;
75261;SDS011;63859;51.064;4.580;2024-01-10T01:12:18;12.70;;;6.10;;
75261;SDS011;63859;51.064;4.580;2024-01-10T01:14:44;11.93;;;6.43;;
75261;SDS011;63859;51.064;4.580;2024-01-10T01:17:09;10.30;;;5.47;;
75261;SDS011;63859;51.064;4.580;2024-01-10T01:19:35;13.03;;;6.57;;
75261;SDS011;63859;51.064;4.580;2024-01-10T01:22:01;11.07;;;5.27;;
75261;SDS011;63859;51.064;4.580;2024-01-10T01:24:26;12.33;;;6.00;;
75261;SDS011;63859;51.064;4.580;2024-01-10T01:26:52;11.30;;;5.70;;
75261;SDS011;63859;51.064;4.580;2024-01-10T01:29:18;15.43;;;6.60;;
75261;SDS011;63859;51.064;4.580;2024-01-10T01:31:45;10.80;;;5.83;;
75261;SDS011;63859;51.064;4.580;2024-01-10T01:34:10;10.63;;;6.33;;
75261;SDS011;63859;51.064;4.580;2024-01-10T01:36:37;12.40;;;6.37;;
75261;SDS011;63859;51.064;4.580;2024-01-10T01:39:02;12.20;;;6.47;;
75261;SDS011;63859;51.064;4.580;2024-01-10T01:41:28;9.60;;;5.50;;
75261;SDS011;63859;51.064;4.580;2024-01-10T01:43:54;12.00;;;5.93;;
75261;SDS011;63859;51.064;4.580;2024-01-10T01:46:19;13.70;;;6.90;;
75261;SDS011;63859;51.064;4.580;2024-01-10T01:48:45;12.53;;;6.20;;
75261;SDS011;63859;51.064;4.580;2024-01-10T01:51:12;11.40;;;6.43;;
75261;SDS011;63859;51.064;4.580;2024-01-10T01:53:39;10.27;;;6.07;;
75261;SDS011;63859;51.064;4.580;2024-01-10T01:56:06;12.00;;;5.90;;
75261;SDS011;63859;51.064;4.580;2024-01-10T01:58:33;9.77;;;5.47;;
75261;SDS011;63859;51.064;4.580;2024-01-10T02:00:59;14.10;;;5.60;;
75261;SDS011;63859;51.064;4.580;2024-01-10T02:03:27;12.07;;;5.87;;
75261;SDS011;63859;51.064;4.580;2024-01-10T02:05:52;13.07;;;6.07;;
75261;SDS011;63859;51.064;4.580;2024-01-10T02:08:19;15.07;;;6.00;;
75261;SDS011;63859;51.064;4.580;2024-01-10T02:10:45;11.57;;;6.30;;
75261;SDS011;63859;51.064;4.580;2024-01-10T02:13:10;13.67;;;6.60;;
75261;SDS011;63859;51.064;4.580;2024-01-10T02:15:37;13.10;;;6.03;;
75261;SDS011;63859;51.064;4.580;2024-01-10T02:18:03;10.97;;;5.80;;
75261;SDS011;63859;51.064;4.580;2024-01-10T02:20:30;10.77;;;6.30;;
75261;SDS011;63859;51.064;4.580;2024-01-10T02:22:56;11.97;;;6.47;;
75261;SDS011;63859;51.064;4.580;2024-01-10T02:25:22;12.13;;;5.67;;
75261;SDS011;63859;51.064;4.580;2024-01-10T02:27:47;11.73;;;6.03;;
75261;SDS011;63859;51.064;4.580;2024-01-10T02:30:13;10.00;;;5.40;;
75261;SDS011;63859;51.064;4.580;2024-01-10T02:32:39;11.23;;;5.87;;
75261;SDS011;63859;51.064;4.580;2024-01-10T02:35:05;10.30;;;5.20;;
75261;SDS011;63859;51.064;4.580;2024-01-10T02:37:32;9.67;;;5.77;;
75261;SDS011;63859;51.064;4.580;2024-01-10T02:39:57;11.27;;;5.47;;
75261;SDS011;63859;51.064;4.580;2024-01-10T02:42:23;13.90;;;5.83;;
75261;SDS011;63859;51.064;4.580;2024-01-10T02:44:49;10.57;;;6.10;;
75261;SDS011;63859;51.064;4.580;2024-01-10T02:47:14;10.63;;;6.27;;
75261;SDS011;63859;51.064;4.580;2024-01-10T02:49:40;12.40;;;6.20;;
75261;SDS011;63859;51.064;4.580;2024-01-10T02:52:06;10.83;;;5.57;;
75261;SDS011;63859;51.064;4.580;2024-01-10T02:54:31;12.20;;;6.03;;
75261;SDS011;63859;51.064;4.580;2024-01-10T02:56:57;11.70;;;5.20;;
75261;SDS011;63859;51.064;4.580;2024-01-10T02:59:23;10.33;;;5.57;;
75261;SDS011;63859;51.064;4.580;2024-01-10T03:01:48;13.30;;;6.07;;
75261;SDS011;63859;51.064;4.580;2024-01-10T03:04:14;15.40;;;5.63;;
75261;SDS011;63859;51.064;4.580;2024-01-10T03:06:39;13.50;;;6.20;;
75261;SDS011;63859;51.064;4.580;2024-01-10T03:09:05;12.87;;;6.70;;
75261;SDS011;63859;51.064;4.580;2024-01-10T03:11:31;11.83;;;5.93;;
75261;SDS011;63859;51.064;4.580;2024-01-10T03:14:03;10.53;;;5.70;;
75261;SDS011;63859;51.064;4.580;2024-01-10T03:16:32;13.97;;;5.33;;
75261;SDS011;63859;51.064;4.580;2024-01-10T03:18:58;12.53;;;6.43;;
75261;SDS011;63859;51.064;4.580;2024-01-10T03:21:24;13.00;;;6.17;;
75261;SDS011;63859;51.064;4.580;2024-01-10T03:23:52;13.67;;;6.10;;
75261;SDS011;63859;51.064;4.580;2024-01-10T03:26:20;9.80;;;5.37;;
75261;SDS011;63859;51.064;4.580;2024-01-10T03:28:45;10.07;;;5.47;;
75261;SDS011;63859;51.064;4.580;2024-01-10T03:31:11;10.63;;;5.63;;
75261;SDS011;63859;51.064;4.580;2024-01-10T03:33:37;11.47;;;5.90;;
75261;SDS011;63859;51.064;4.580;2024-01-10T03:36:03;9.80;;;5.63;;
75261;SDS011;63859;51.064;4.580;2024-01-10T03:38:30;10.70;;;6.03;;
75261;SDS011;63859;51.064;4.580;2024-01-10T03:40:55;10.33;;;5.43;;
75261;SDS011;63859;51.064;4.580;2024-01-10T03:43:21;11.90;;;5.57;;
75261;SDS011;63859;51.064;4.580;2024-01-10T03:45:47;13.17;;;6.43;;
75261;SDS011;63859;51.064;4.580;2024-01-10T03:48:12;14.50;;;5.60;;
75261;SDS011;63859;51.064;4.580;2024-01-10T03:50:38;10.23;;;5.63;;
75261;SDS011;63859;51.064;4.580;2024-01-10T03:53:03;11.83;;;6.30;;
75261;SDS011;63859;51.064;4.580;2024-01-10T03:55:29;10.37;;;6.00;;
75261;SDS011;63859;51.064;4.580;2024-01-10T03:57:55;11.87;;;5.73;;
75261;SDS011;63859;51.064;4.580;2024-01-10T04:00:21;11.17;;;5.57;;
75261;SDS011;63859;51.064;4.580;2024-01-10T04:02:47;15.00;;;5.63;;
75261;SDS011;63859;51.064;4.580;2024-01-10T04:05:12;10.77;;;5.17;;
75261;SDS011;63859;51.064;4.580;2024-01-10T04:07:41;13.40;;;5.30;;
75261;SDS011;63859;51.064;4.580;2024-01-10T04:10:08;12.50;;;5.90;;
75261;SDS011;63859;51.064;4.580;2024-01-10T04:12:38;12.20;;;5.43;;
75261;SDS011;63859;51.064;4.580;2024-01-10T04:15:04;11.53;;;5.70;;
75261;SDS011;63859;51.064;4.580;2024-01-10T04:17:30;10.80;;;5.70;;
75261;SDS011;63859;51.064;4.580;2024-01-10T04:19:56;8.97;;;5.43;;
75261;SDS011;63859;51.064;4.580;2024-01-10T04:22:23;10.93;;;6.13;;
75261;SDS011;63859;51.064;4.580;2024-01-10T04:24:49;11.70;;;6.20;;
75261;SDS011;63859;51.064;4.580;2024-01-10T04:27:15;10.17;;;5.30;;
75261;SDS011;63859;51.064;4.580;2024-01-10T04:29:41;11.13;;;5.50;;
75261;SDS011;63859;51.064;4.580;2024-01-10T04:32:07;10.17;;;5.40;;
75261;SDS011;63859;51.064;4.580;2024-01-10T04:34:33;11.03;;;5.70;;
75261;SDS011;63859;51.064;4.580;2024-01-10T04:36:59;14.73;;;5.53;;
75261;SDS011;63859;51.064;4.580;2024-01-10T04:39:24;10.70;;;5.43;;
75261;SDS011;63859;51.064;4.580;2024-01-10T04:41:50;10.40;;;5.37;;
75261;SDS011;63859;51.064;4.580;2024-01-10T04:44:16;12.10;;;5.80;;
75261;SDS011;63859;51.064;4.580;2024-01-10T04:46:41;11.40;;;5.50;;
75261;SDS011;63859;51.064;4.580;2024-01-10T04:49:07;11.70;;;5.77;;
75261;SDS011;63859;51.064;4.580;2024-01-10T04:51:33;12.77;;;5.70;;
75261;SDS011;63859;51.064;4.580;2024-01-10T04:53:59;13.03;;;6.17;;
75261;SDS011;63859;51.064;4.580;2024-01-10T04:56:24;12.90;;;5.67;;
75261;SDS011;63859;51.064;4.580;2024-01-10T04:58:50;12.80;;;6.00;;
75261;SDS011;63859;51.064;4.580;2024-01-10T05:01:16;11.37;;;5.63;;
75261;SDS011;63859;51.064;4.580;2024-01-10T05:03:42;11.70;;;5.63;;
75261;SDS011;63859;51.064;4.580;2024-01-10T05:06:07;9.27;;;5.20;;
75261;SDS011;63859;51.064;4.580;2024-01-10T05:08:33;12.73;;;5.70;;
75261;SDS011;63859;51.064;4.580;2024-01-10T05:10:59;13.43;;;5.60;;
75261;SDS011;63859;51.064;4.580;2024-01-10T05:13:24;12.03;;;5.57;;
75261;SDS011;63859;51.064;4.580;2024-01-10T05:15:50;11.13;;;5.47;;
75261;SDS011;63859;51.064;4.580;2024-01-10T05:18:18;13.57;;;5.37;;
75261;SDS011;63859;51.064;4.580;2024-01-10T05:20:43;9.77;;;5.37;;
75261;SDS011;63859;51.064;4.580;2024-01-10T05:23:09;13.33;;;5.97;;
75261;SDS011;63859;51.064;4.580;2024-01-10T05:25:35;9.53;;;5.43;;
75261;SDS011;63859;51.064;4.580;2024-01-10T05:28:01;10.60;;;5.67;;
75261;SDS011;63859;51.064;4.580;2024-01-10T05:30:27;14.00;;;5.40;;
75261;SDS011;63859;51.064;4.580;2024-01-10T05:32:53;10.53;;;5.27;;
75261;SDS011;63859;51.064;4.580;2024-01-10T05:35:18;7.33;;;4.80;;
75261;SDS011;63859;51.064;4.580;2024-01-10T05:37:44;8.93;;;5.20;;
75261;SDS011;63859;51.064;4.580;2024-01-10T05:40:10;10.63;;;5.23;;
75261;SDS011;63859;51.064;4.580;2024-01-10T05:42:36;10.97;;;6.00;;
75261;SDS011;63859;51.064;4.580;2024-01-10T05:45:03;10.70;;;4.80;;
75261;SDS011;63859;51.064;4.580;2024-01-10T05:47:29;10.07;;;5.63;;
75261;SDS011;63859;51.064;4.580;2024-01-10T05:49:55;11.87;;;5.67;;
75261;SDS011;63859;51.064;4.580;2024-01-10T05:52:21;8.23;;;5.43;;
75261;SDS011;63859;51.064;4.580;2024-01-10T05:54:49;10.67;;;5.73;;
75261;SDS011;63859;51.064;4.580;2024-01-10T05:57:15;9.10;;;5.40;;
75261;SDS011;63859;51.064;4.580;2024-01-10T05:59:41;10.37;;;6.30;;
75261;SDS011;63859;51.064;4.580;2024-01-10T06:02:06;11.67;;;5.80;;
75261;SDS011;63859;51.064;4.580;2024-01-10T06:04:32;10.77;;;5.63;;
75261;SDS011;63859;51.064;4.580;2024-01-10T06:06:58;9.77;;;5.40;;
75261;SDS011;63859;51.064;4.580;2024-01-10T06:09:24;8.93;;;5.33;;
75261;SDS011;63859;51.064;4.580;2024-01-10T06:11:50;10.47;;;5.70;;
75261;SDS011;63859;51.064;4.580;2024-01-10T06:14:16;12.43;;;6.10;;
75261;SDS011;63859;51.064;4.580;2024-01-10T06:16:42;13.03;;;5.80;;
75261;SDS011;63859;51.064;4.580;2024-01-10T06:19:10;10.83;;;5.73;;
75261;SDS011;63859;51.064;4.580;2024-01-10T06:21:36;13.37;;;5.73;;
75261;SDS011;63859;51.064;4.580;2024-01-10T06:24:02;14.50;;;6.40;;
75261;SDS011;63859;51.064;4.580;2024-01-10T06:26:28;13.93;;;6.23;;
75261;SDS011;63859;51.064;4.580;2024-01-10T06:28:54;10.00;;;5.43;;
75261;SDS011;63859;51.064;4.580;2024-01-10T06:31:19;12.03;;;6.27;;
75261;SDS011;63859;51.064;4.580;2024-01-10T06:33:45;11.13;;;5.80;;
75261;SDS011;63859;51.064;4.580;2024-01-10T06:36:11;11.60;;;6.07;;
75261;SDS011;63859;51.064;4.580;2024-01-10T06:38:38;11.80;;;6.10;;
75261;SDS011;63859;51.064;4.580;2024-01-10T06:41:08;13.17;;;6.37;;
75261;SDS011;63859;51.064;4.580;2024-01-10T06:43:35;11.63;;;5.23;;
75261;SDS011;63859;51.064;4.580;2024-01-10T06:46:01;14.57;;;5.63;;
75261;SDS011;63859;51.064;4.580;2024-01-10T06:48:28;15.90;;;6.03;;
75261;SDS011;63859;51.064;4.580;2024-01-10T06:50:54;10.00;;;5.13;;
75261;SDS011;63859;51.064;4.580;2024-01-10T06:53:20;14.63;;;6.30;;
75261;SDS011;63859;51.064;4.580;2024-01-10T06:55:46;12.83;;;5.57;;
75261;SDS011;63859;51.064;4.580;2024-01-10T06:58:12;11.40;;;6.73;;
75261;SDS011;63859;51.064;4.580;2024-01-10T07:00:38;10.60;;;6.07;;
75261;SDS011;63859;51.064;4.580;2024-01-10T07:03:04;12.47;;;6.13;;
75261;SDS011;63859;51.064;4.580;2024-01-10T07:05:30;10.87;;;5.93;;
75261;SDS011;63859;51.064;4.580;2024-01-10T07:07:58;11.07;;;6.30;;
75261;SDS011;63859;51.064;4.580;2024-01-10T07:10:27;52.00;;;7.97;;
75261;SDS011;63859;51.064;4.580;2024-01-10T07:12:56;10.70;;;5.53;;
75261;SDS011;63859;51.064;4.580;2024-01-10T07:15:22;9.33;;;5.10;;
75261;SDS011;63859;51.064;4.580;2024-01-10T07:17:48;14.23;;;6.13;;
75261;SDS011;63859;51.064;4.580;2024-01-10T07:20:14;11.20;;;5.07;;
75261;SDS011;63859;51.064;4.580;2024-01-10T07:22:40;12.23;;;5.47;;
75261;SDS011;63859;51.064;4.580;2024-01-10T07:25:12;12.33;;;6.13;;
75261;SDS011;63859;51.064;4.580;2024-01-10T07:27:42;10.60;;;5.57;;
75261;SDS011;63859;51.064;4.580;2024-01-10T07:30:08;13.67;;;6.67;;
75261;SDS011;63859;51.064;4.580;2024-01-10T07:32:44;15.97;;;6.03;;
75261;SDS011;63859;51.064;4.580;2024-01-10T07:35:11;14.13;;;6.50;;
75261;SDS011;63859;51.064;4.580;2024-01-10T07:37:39;11.70;;;6.00;;
75261;SDS011;63859;51.064;4.580;2024-01-10T07:40:06;14.17;;;6.33;;
75261;SDS011;63859;51.064;4.580;2024-01-10T07:42:33;13.17;;;6.63;;
75261;SDS011;63859;51.064;4.580;2024-01-10T07:45:00;13.60;;;6.33;;
75261;SDS011;63859;51.064;4.580;2024-01-10T07:47:29;14.80;;;6.57;;
75261;SDS011;63859;51.064;4.580;2024-01-10T07:50:07;12.90;;;6.37;;
75261;SDS011;63859;51.064;4.580;2024-01-10T07:52:34;10.90;;;6.20;;
75261;SDS011;63859;51.064;4.580;2024-01-10T07:55:00;11.43;;;6.10;;
75261;SDS011;63859;51.064;4.580;2024-01-10T07:57:27;12.50;;;6.47;;
75261;SDS011;63859;51.064;4.580;2024-01-10T07:59:53;16.43;;;7.43;;
75261;SDS011;63859;51.064;4.580;2024-01-10T08:02:19;14.83;;;7.13;;
75261;SDS011;63859;51.064;4.580;2024-01-10T08:04:44;15.53;;;7.07;;
75261;SDS011;63859;51.064;4.580;2024-01-10T08:07:10;14.13;;;6.90;;
75261;SDS011;63859;51.064;4.580;2024-01-10T08:09:36;18.10;;;7.17;;
75261;SDS011;63859;51.064;4.580;2024-01-10T08:12:02;12.63;;;6.77;;
75261;SDS011;63859;51.064;4.580;2024-01-10T08:14:28;15.50;;;7.17;;
75261;SDS011;63859;51.064;4.580;2024-01-10T08:16:54;13.37;;;6.70;;
75261;SDS011;63859;51.064;4.580;2024-01-10T08:19:23;13.20;;;6.60;;
75261;SDS011;63859;51.064;4.580;2024-01-10T08:21:50;16.17;;;6.57;;
75261;SDS011;63859;51.064;4.580;2024-01-10T08:24:17;11.90;;;6.13;;
75261;SDS011;63859;51.064;4.580;2024-01-10T08:26:42;9.97;;;5.53;;
75261;SDS011;63859;51.064;4.580;2024-01-10T08:29:08;12.60;;;6.37;;
75261;SDS011;63859;51.064;4.580;2024-01-10T08:31:34;14.33;;;6.40;;
75261;SDS011;63859;51.064;4.580;2024-01-10T08:33:59;13.50;;;6.90;;
75261;SDS011;63859;51.064;4.580;2024-01-10T08:36:26;14.90;;;6.57;;
75261;SDS011;63859;51.064;4.580;2024-01-10T08:38:52;10.73;;;6.07;;
75261;SDS011;63859;51.064;4.580;2024-01-10T08:41:18;16.50;;;7.53;;
75261;SDS011;63859;51.064;4.580;2024-01-10T08:43:44;12.20;;;7.03;;
75261;SDS011;63859;51.064;4.580;2024-01-10T08:46:13;14.30;;;7.10;;
75261;SDS011;63859;51.064;4.580;2024-01-10T08:48:39;16.87;;;7.53;;
75261;SDS011;63859;51.064;4.580;2024-01-10T08:51:04;14.07;;;6.63;;
75261;SDS011;63859;51.064;4.580;2024-01-10T08:53:30;13.13;;;6.67;;
75261;SDS011;63859;51.064;4.580;2024-01-10T08:55:56;14.90;;;6.67;;
75261;SDS011;63859;51.064;4.580;2024-01-10T08:58:21;12.93;;;6.37;;
75261;SDS011;63859;51.064;4.580;2024-01-10T09:00:47;16.60;;;6.80;;
75261;SDS011;63859;51.064;4.580;2024-01-10T09:03:13;19.40;;;7.13;;
75261;SDS011;63859;51.064;4.580;2024-01-10T09:05:38;13.83;;;6.90;;
75261;SDS011;63859;51.064;4.580;2024-01-10T09:08:04;14.53;;;7.10;;
75261;SDS011;63859;51.064;4.580;2024-01-10T09:10:30;12.57;;;6.70;;
75261;SDS011;63859;51.064;4.580;2024-01-10T09:12:58;16.90;;;6.80;;
75261;SDS011;63859;51.064;4.580;2024-01-10T09:15:24;13.63;;;7.03;;
75261;SDS011;63859;51.064;4.580;2024-01-10T09:17:50;12.27;;;6.77;;
75261;SDS011;63859;51.064;4.580;2024-01-10T09:20:17;16.87;;;7.00;;
75261;SDS011;63859;51.064;4.580;2024-01-10T09:22:43;15.63;;;7.10;;
75261;SDS011;63859;51.064;4.580;2024-01-10T09:25:09;15.03;;;7.40;;
75261;SDS011;63859;51.064;4.580;2024-01-10T09:27:38;16.37;;;7.53;;
75261;SDS011;63859;51.064;4.580;2024-01-10T09:30:10;13.80;;;7.63;;
75261;SDS011;63859;51.064;4.580;2024-01-10T09:32:36;18.27;;;8.47;;
75261;SDS011;63859;51.064;4.580;2024-01-10T09:35:03;14.07;;;7.60;;
75261;SDS011;63859;51.064;4.580;2024-01-10T09:37:29;15.10;;;6.67;;
75261;SDS011;63859;51.064;4.580;2024-01-10T09:39:55;15.50;;;7.80;;
75261;SDS011;63859;51.064;4.580;2024-01-10T09:42:20;15.57;;;7.80;;
75261;SDS011;63859;51.064;4.580;2024-01-10T09:44:50;10.63;;;7.13;;
75261;SDS011;63859;51.064;4.580;2024-01-10T09:47:16;15.77;;;7.13;;
75261;SDS011;63859;51.064;4.580;2024-01-10T09:49:43;13.90;;;7.47;;
75261;SDS011;63859;51.064;4.580;2024-01-10T09:52:11;16.87;;;7.57;;
75261;SDS011;63859;51.064;4.580;2024-01-10T09:54:48;14.40;;;7.30;;
75261;SDS011;63859;51.064;4.580;2024-01-10T09:57:21;16.03;;;7.90;;
75261;SDS011;63859;51.064;4.580;2024-01-10T09:59:53;16.93;;;7.67;;
75261;SDS011;63859;51.064;4.580;2024-01-10T10:02:21;14.83;;;7.43;;
75261;SDS011;63859;51.064;4.580;2024-01-10T10:05:12;14.57;;;6.97;;
75261;SDS011;63859;51.064;4.580;2024-01-10T10:07:52;15.80;;;8.07;;
75261;SDS011;63859;51.064;4.580;2024-01-10T10:10:18;12.43;;;6.67;;
75261;SDS011;63859;51.064;4.580;2024-01-10T10:12:48;16.83;;;7.70;;
75261;SDS011;63859;51.064;4.580;2024-01-10T10:15:19;19.33;;;8.90;;
75261;SDS011;63859;51.064;4.580;2024-01-10T10:17:51;17.17;;;8.03;;
75261;SDS011;63859;51.064;4.580;2024-01-10T10:25:36;20.47;;;8.17;;
75261;SDS011;63859;51.064;4.580;2024-01-10T10:28:04;15.43;;;8.00;;
75261;SDS011;63859;51.064;4.580;2024-01-10T10:30:30;15.60;;;8.07;;
75261;SDS011;63859;51.064;4.580;2024-01-10T10:32:57;15.87;;;8.50;;
75261;SDS011;63859;51.064;4.580;2024-01-10T10:35:23;14.07;;;7.93;;
75261;SDS011;63859;51.064;4.580;2024-01-10T10:37:50;17.53;;;8.30;;
75261;SDS011;63859;51.064;4.580;2024-01-10T10:40:16;17.43;;;8.90;;
75261;SDS011;63859;51.064;4.580;2024-01-10T10:42:47;18.00;;;7.97;;
75261;SDS011;63859;51.064;4.580;2024-01-10T10:45:22;16.63;;;7.57;;
75261;SDS011;63859;51.064;4.580;2024-01-10T10:47:52;17.47;;;7.73;;
75261;SDS011;63859;51.064;4.580;2024-01-10T10:50:28;15.63;;;8.07;;
75261;SDS011;63859;51.064;4.580;2024-01-10T10:52:57;18.20;;;8.87;;
75261;SDS011;63859;51.064;4.580;2024-01-10T10:55:25;18.40;;;8.50;;
75261;SDS011;63859;51.064;4.580;2024-01-10T10:57:52;18.60;;;8.83;;
75261;SDS011;63859;51.064;4.580;2024-01-10T11:00:20;14.70;;;7.77;;
75261;SDS011;63859;51.064;4.580;2024-01-10T11:02:51;21.37;;;8.90;;
75261;SDS011;63859;51.064;4.580;2024-01-10T11:05:20;20.87;;;8.77;;
75261;SDS011;63859;51.064;4.580;2024-01-10T11:07:45;18.90;;;8.87;;
75261;SDS011;63859;51.064;4.580;2024-01-10T11:10:28;16.10;;;8.10;;
75261;SDS011;63859;51.064;4.580;2024-01-10T11:21:29;20.53;;;9.43;;
75261;SDS011;63859;51.064;4.580;2024-01-10T11:24:01;23.00;;;9.43;;
75261;SDS011;63859;51.064;4.580;2024-01-10T11:26:29;18.80;;;9.53;;
75261;SDS011;63859;51.064;4.580;2024-01-10T11:28:56;20.20;;;8.03;;
75261;SDS011;63859;51.064;4.580;2024-01-10T11:31:29;19.60;;;8.83;;
75261;SDS011;63859;51.064;4.580;2024-01-10T11:33:59;17.47;;;8.47;;
75261;SDS011;63859;51.064;4.580;2024-01-10T11:36:26;18.57;;;8.83;;
75261;SDS011;63859;51.064;4.580;2024-01-10T11:41:37;23.67;;;9.40;;
75261;SDS011;63859;51.064;4.580;2024-01-10T11:49:11;20.30;;;9.40;;
75261;SDS011;63859;51.064;4.580;2024-01-10T11:51:44;22.50;;;9.30;;
75261;SDS011;63859;51.064;4.580;2024-01-10T11:54:11;19.30;;;9.03;;
75261;SDS011;63859;51.064;4.580;2024-01-10T11:56:38;19.60;;;8.93;;
75261;SDS011;63859;51.064;4.580;2024-01-10T11:59:06;21.63;;;9.03;;
75261;SDS011;63859;51.064;4.580;2024-01-10T12:01:37;21.33;;;9.13;;
75261;SDS011;63859;51.064;4.580;2024-01-10T12:04:03;18.47;;;9.33;;
75261;SDS011;63859;51.064;4.580;2024-01-10T12:06:34;19.23;;;8.23;;
75261;SDS011;63859;51.064;4.580;2024-01-10T12:09:01;17.77;;;8.17;;
75261;SDS011;63859;51.064;4.580;2024-01-10T12:11:30;20.03;;;8.60;;
75261;SDS011;63859;51.064;4.580;2024-01-10T12:13:55;24.97;;;9.43;;
75261;SDS011;63859;51.064;4.580;2024-01-10T12:16:23;20.07;;;9.83;;
75261;SDS011;63859;51.064;4.580;2024-01-10T12:18:48;16.00;;;8.70;;
75261;SDS011;63859;51.064;4.580;2024-01-10T12:21:16;20.27;;;9.57;;
75261;SDS011;63859;51.064;4.580;2024-01-10T12:23:42;18.40;;;8.77;;
75261;SDS011;63859;51.064;4.580;2024-01-10T12:26:09;21.67;;;8.83;;
75261;SDS011;63859;51.064;4.580;2024-01-10T12:28:38;16.53;;;9.50;;
75261;SDS011;63859;51.064;4.580;2024-01-10T12:31:05;19.20;;;9.20;;
75261;SDS011;63859;51.064;4.580;2024-01-10T12:33:35;17.97;;;9.03;;
75261;SDS011;63859;51.064;4.580;2024-01-10T12:36:09;19.20;;;9.27;;
75261;SDS011;63859;51.064;4.580;2024-01-10T12:38:36;20.27;;;9.27;;
75261;SDS011;63859;51.064;4.580;2024-01-10T12:41:05;16.80;;;9.10;;
75261;SDS011;63859;51.064;4.580;2024-01-10T12:43:33;17.23;;;9.57;;
75261;SDS011;63859;51.064;4.580;2024-01-10T12:48:32;17.53;;;9.60;;
75261;SDS011;63859;51.064;4.580;2024-01-10T12:51:01;23.40;;;9.37;;
75261;SDS011;63859;51.064;4.580;2024-01-10T12:53:31;18.60;;;9.37;;
75261;SDS011;63859;51.064;4.580;2024-01-10T12:56:04;18.17;;;9.13;;
75261;SDS011;63859;51.064;4.580;2024-01-10T12:58:30;19.73;;;10.00;;
75261;SDS011;63859;51.064;4.580;2024-01-10T13:00:57;18.33;;;9.47;;
75261;SDS011;63859;51.064;4.580;2024-01-10T13:03:23;17.33;;;9.87;;
75261;SDS011;63859;51.064;4.580;2024-01-10T13:05:49;21.27;;;10.17;;
75261;SDS011;63859;51.064;4.580;2024-01-10T13:08:16;21.33;;;9.73;;
75261;SDS011;63859;51.064;4.580;2024-01-10T13:10:42;16.77;;;9.47;;
75261;SDS011;63859;51.064;4.580;2024-01-10T13:13:08;20.53;;;10.00;;
75261;SDS011;63859;51.064;4.580;2024-01-10T13:15:34;20.73;;;10.20;;
75261;SDS011;63859;51.064;4.580;2024-01-10T13:17:59;18.53;;;9.40;;
75261;SDS011;63859;51.064;4.580;2024-01-10T13:20:25;19.30;;;10.03;;
75261;SDS011;63859;51.064;4.580;2024-01-10T13:22:51;16.13;;;8.70;;
75261;SDS011;63859;51.064;4.580;2024-01-10T13:25:17;20.03;;;9.00;;
75261;SDS011;63859;51.064;4.580;2024-01-10T13:27:46;19.93;;;9.77;;
75261;SDS011;63859;51.064;4.580;2024-01-10T13:30:12;16.27;;;9.40;;
75261;SDS011;63859;51.064;4.580;2024-01-10T13:32:37;18.43;;;9.07;;
75261;SDS011;63859;51.064;4.580;2024-01-10T13:35:04;18.27;;;10.40;;
75261;SDS011;63859;51.064;4.580;2024-01-10T13:37:29;22.23;;;9.97;;
75261;SDS011;63859;51.064;4.580;2024-01-10T13:39:57;19.23;;;9.40;;
75261;SDS011;63859;51.064;4.580;2024-01-10T13:42:23;20.20;;;10.47;;
75261;SDS011;63859;51.064;4.580;2024-01-10T13:44:49;21.97;;;9.67;;
75261;SDS011;63859;51.064;4.580;2024-01-10T13:47:17;18.53;;;9.50;;
75261;SDS011;63859;51.064;4.580;2024-01-10T13:49:43;18.60;;;10.30;;
75261;SDS011;63859;51.064;4.580;2024-01-10T13:52:08;19.10;;;10.07;;
75261;SDS011;63859;51.064;4.580;2024-01-10T13:54:34;19.43;;;10.13;;
75261;SDS011;63859;51.064;4.580;2024-01-10T13:57:01;23.10;;;10.20;;
75261;SDS011;63859;51.064;4.580;2024-01-10T13:59:28;19.60;;;10.00;;
75261;SDS011;63859;51.064;4.580;2024-01-10T14:01:53;22.17;;;10.73;;
75261;SDS011;63859;51.064;4.580;2024-01-10T14:04:20;20.90;;;10.03;;
75261;SDS011;63859;51.064;4.580;2024-01-10T14:06:47;20.83;;;10.40;;
75261;SDS011;63859;51.064;4.580;2024-01-10T14:09:13;19.23;;;9.53;;
75261;SDS011;63859;51.064;4.580;2024-01-10T14:11:39;20.77;;;10.27;;
75261;SDS011;63859;51.064;4.580;2024-01-10T14:14:04;20.03;;;9.60;;
75261;SDS011;63859;51.064;4.580;2024-01-10T14:16:30;21.70;;;10.37;;
75261;SDS011;63859;51.064;4.580;2024-01-10T14:18:56;21.10;;;10.87;;
75261;SDS011;63859;51.064;4.580;2024-01-10T14:21:22;19.23;;;9.93;;
75261;SDS011;63859;51.064;4.580;2024-01-10T14:23:48;19.03;;;9.90;;
75261;SDS011;63859;51.064;4.580;2024-01-10T14:26:14;22.20;;;10.20;;
75261;SDS011;63859;51.064;4.580;2024-01-10T14:28:40;19.17;;;10.87;;
75261;SDS011;63859;51.064;4.580;2024-01-10T14:31:06;28.13;;;10.93;;
75261;SDS011;63859;51.064;4.580;2024-01-10T14:33:32;18.07;;;9.73;;
75261;SDS011;63859;51.064;4.580;2024-01-10T14:35:58;23.93;;;10.03;;
75261;SDS011;63859;51.064;4.580;2024-01-10T14:38:25;19.80;;;10.00;;
75261;SDS011;63859;51.064;4.580;2024-01-10T14:40:50;20.13;;;10.60;;
75261;SDS011;63859;51.064;4.580;2024-01-10T14:43:16;20.00;;;10.67;;
75261;SDS011;63859;51.064;4.580;2024-01-10T14:45:43;18.93;;;10.17;;
75261;SDS011;63859;51.064;4.580;2024-01-10T14:48:09;18.43;;;9.40;;
75261;SDS011;63859;51.064;4.580;2024-01-10T14:50:34;20.97;;;10.17;;
75261;SDS011;63859;51.064;4.580;2024-01-10T14:53:01;19.50;;;10.50;;
75261;SDS011;63859;51.064;4.580;2024-01-10T14:55:27;19.20;;;9.97;;